Terminal Aerodrome Forecast
Issued by NWS

Home | Current Version | Previous Version | Graphics & Text | Print | Product List | Glossary On
Versions: 1 2 3 4 5 6 7 8 9 10 11 12 13 14 15
671
FTUS43 KUNR 200406 AAA
TAFGCC
TAF AMD
KGCC 200406Z 2004/2024 33008KT P6SM BKN035 OVC080
     FM200700 34006KT P6SM SCT040 BKN080
     FM201400 VRB05KT P6SM SCT100=

USA.gov is the U.S. government's official web portal to all federal, state and local government web resources and services.